Time;durP1;ratioP1;P1;durP2;ratioP2;P2;SDS_P1;SDS_P2;PMS_P1;PMS_P2;Temp;Humidity;BMP_temperature;BMP_pressure;BME280_temperature;BME280_humidity;BME280_pressure;Samples;Min_cycle;Max_cycle;Signal;HPM_P1;HPM_P2
2023/03/26 00:00:47;;;;;;;24.50;3.10;;;8.40;99.90;;;;;;5016771;28;20026;-95
2023/03/26 00:03:15;;;;;;;27.98;3.63;;;8.40;99.90;;;;;;5005977;28;20041;-94
2023/03/26 00:05:41;;;;;;;36.63;3.42;;;8.40;99.90;;;;;;4997714;28;20037;-94
2023/03/26 00:08:08;;;;;;;29.67;3.00;;;8.40;99.90;;;;;;4997098;28;20030;-95
2023/03/26 00:10:35;;;;;;;18.95;2.30;;;8.40;99.90;;;;;;4998598;28;20021;-96
2023/03/26 00:13:02;;;;;;;21.48;3.30;;;8.40;99.90;;;;;;5015202;28;20073;-96
2023/03/26 00:15:27;;;;;;;22.45;3.20;;;8.40;99.90;;;;;;4998214;28;20034;-96
2023/03/26 00:17:55;;;;;;;28.13;3.33;;;8.40;99.90;;;;;;4996145;28;20030;-95
2023/03/26 00:20:21;;;;;;;33.42;4.60;;;8.40;99.90;;;;;;4996284;28;20026;-95
2023/03/26 00:22:46;;;;;;;22.63;3.40;;;8.40;99.90;;;;;;5015135;28;20492;-95
2023/03/26 00:25:13;;;;;;;30.30;4.35;;;8.40;99.90;;;;;;5008446;28;20033;-96
2023/03/26 00:27:39;;;;;;;29.25;3.78;;;8.40;99.90;;;;;;5020586;28;20044;-96
2023/03/26 00:30:06;;;;;;;28.98;3.30;;;8.40;99.90;;;;;;4998424;28;20030;-93
2023/03/26 00:32:31;;;;;;;24.48;2.97;;;8.30;99.90;;;;;;4997159;28;20034;-94
2023/03/26 00:34:57;;;;;;;34.92;4.30;;;8.30;99.90;;;;;;4997390;28;20026;-94
2023/03/26 00:37:26;;;;;;;32.22;4.70;;;8.30;99.90;;;;;;4986069;28;20041;-94
2023/03/26 00:39:58;;;;;;;29.15;3.75;;;8.30;99.90;;;;;;4996484;28;20117;-94
2023/03/26 00:42:24;;;;;;;31.23;4.57;;;8.30;99.90;;;;;;4994108;28;20030;-94
2023/03/26 00:44:53;;;;;;;29.05;4.43;;;8.30;99.90;;;;;;4992543;28;20553;-94
2023/03/26 00:47:20;;;;;;;37.10;4.95;;;8.30;99.90;;;;;;5004981;28;20030;-94
2023/03/26 00:49:47;;;;;;;30.40;4.72;;;8.30;99.90;;;;;;5013058;28;20030;-94
2023/03/26 00:52:17;;;;;;;42.45;5.55;;;8.30;99.90;;;;;;4991359;28;20117;-95
2023/03/26 00:54:52;;;;;;;35.10;3.95;;;8.30;99.90;;;;;;4997399;28;20030;-94
2023/03/26 00:57:21;;;;;;;38.17;5.43;;;8.30;99.90;;;;;;4990327;28;20021;-94
2023/03/26 00:59:48;;;;;;;39.53;5.15;;;8.30;99.90;;;;;;4993585;28;20022;-94
2023/03/26 01:02:17;;;;;;;36.47;5.10;;;8.30;99.90;;;;;;5022060;28;20039;-94
2023/03/26 01:04:56;;;;;;;41.75;5.30;;;8.30;99.90;;;;;;5013216;28;20509;-94
2023/03/26 01:07:27;;;;;;;30.52;4.47;;;8.30;99.90;;;;;;4995784;28;20057;-95
2023/03/26 01:09:55;;;;;;;30.40;5.32;;;8.30;99.90;;;;;;5013299;28;20038;-94
2023/03/26 01:12:23;;;;;;;36.25;5.10;;;8.30;99.90;;;;;;5010958;28;20038;-93
2023/03/26 01:14:52;;;;;;;33.05;5.25;;;8.40;99.90;;;;;;4998618;28;20014;-93
2023/03/26 01:17:18;;;;;;;39.67;5.97;;;8.40;99.90;;;;;;5013357;28;20026;-94
2023/03/26 01:20:13;;;;;;;35.72;5.45;;;8.40;99.90;;;;;;4996199;28;20030;-94
2023/03/26 01:22:45;;;;;;;39.92;5.50;;;8.40;99.90;;;;;;4992436;28;20029;-93
2023/03/26 01:25:11;;;;;;;37.00;6.57;;;8.40;99.90;;;;;;4994235;28;20034;-93
2023/03/26 01:27:53;;;;;;;45.33;6.55;;;8.40;99.90;;;;;;4996874;28;20026;-93
2023/03/26 01:30:48;;;;;;;37.95;5.15;;;8.40;99.90;;;;;;5005004;28;20035;-93
2023/03/26 01:33:32;;;;;;;29.35;4.40;;;8.40;99.90;;;;;;4992977;28;20046;-92
2023/03/26 01:36:12;;;;;;;40.30;4.47;;;8.40;99.90;;;;;;5018263;28;20068;-94
2023/03/26 01:38:58;;;;;;;32.63;4.68;;;8.40;99.90;;;;;;5002262;28;20430;-93
2023/03/26 01:41:24;;;;;;;43.97;4.95;;;8.40;99.90;;;;;;5015454;28;20128;-92
2023/03/26 01:44:16;;;;;;;41.08;5.10;;;8.40;99.90;;;;;;4998282;28;20123;-93
2023/03/26 01:46:42;;;;;;;38.93;5.07;;;8.50;99.90;;;;;;4986858;28;20041;-92
2023/03/26 01:49:12;;;;;;;35.90;4.78;;;8.40;99.90;;;;;;5006329;28;20265;-92
2023/03/26 01:51:38;;;;;;;38.63;5.15;;;8.40;99.90;;;;;;5000109;28;20038;-92
2023/03/26 01:54:07;;;;;;;39.45;5.95;;;8.50;99.90;;;;;;5002698;28;20029;-93
2023/03/26 01:56:38;;;;;;;38.25;5.85;;;8.50;99.90;;;;;;5016276;28;20034;-94
2023/03/26 01:59:36;;;;;;;31.65;5.13;;;8.50;99.90;;;;;;5016592;28;20041;-93
2023/03/26 02:02:14;;;;;;;39.22;5.10;;;8.50;99.90;;;;;;4962339;28;20477;-93
2023/03/26 02:04:55;;;;;;;29.35;4.65;;;8.50;99.90;;;;;;4986537;28;20094;-93
2023/03/26 02:07:37;;;;;;;32.93;4.97;;;8.50;99.90;;;;;;5019638;28;20030;-95
2023/03/26 02:10:23;;;;;;;30.55;4.80;;;8.50;99.90;;;;;;5009647;28;20124;-95
2023/03/26 02:12:49;;;;;;;31.60;5.50;;;8.50;99.90;;;;;;5019016;28;20034;-95
2023/03/26 02:15:16;;;;;;;35.90;5.40;;;8.50;99.90;;;;;;5005354;28;20030;-94
2023/03/26 02:17:41;;;;;;;42.88;5.53;;;8.50;99.90;;;;;;5019340;28;20038;-93
2023/03/26 02:20:09;;;;;;;47.22;7.65;;;8.50;99.90;;;;;;5001594;28;20032;-94
2023/03/26 02:22:40;;;;;;;34.45;6.25;;;8.60;99.90;;;;;;5006834;28;20022;-95
2023/03/26 02:25:11;;;;;;;34.20;5.93;;;8.60;99.90;;;;;;5018269;28;20057;-95
2023/03/26 02:27:37;;;;;;;27.48;5.20;;;8.60;99.90;;;;;;5001390;28;20475;-94
2023/03/26 02:30:05;;;;;;;38.53;5.93;;;8.60;99.90;;;;;;5002091;28;20038;-95
2023/03/26 02:32:30;;;;;;;34.38;6.30;;;8.60;99.90;;;;;;4997551;28;20403;-94
2023/03/26 02:34:56;;;;;;;39.15;5.68;;;8.60;99.90;;;;;;4994985;28;20041;-94
2023/03/26 02:37:21;;;;;;;46.97;5.38;;;8.60;99.90;;;;;;5005295;28;20041;-95
2023/03/26 02:39:47;;;;;;;33.13;5.13;;;8.60;99.90;;;;;;5018097;28;20030;-93
2023/03/26 02:42:14;;;;;;;30.45;5.38;;;8.60;99.90;;;;;;5018429;28;20549;-94
2023/03/26 02:44:40;;;;;;;30.20;4.55;;;8.60;99.90;;;;;;5010863;28;20064;-92
2023/03/26 02:47:06;;;;;;;46.00;5.30;;;8.60;99.90;;;;;;5018305;28;20029;-94
2023/03/26 02:49:32;;;;;;;33.28;4.30;;;8.50;99.90;;;;;;5001026;28;20036;-94
2023/03/26 02:51:58;;;;;;;31.83;5.05;;;8.50;99.90;;;;;;5001490;28;20041;-93
2023/03/26 02:54:24;;;;;;;36.80;5.15;;;8.50;99.90;;;;;;5005328;28;20026;-94
2023/03/26 02:56:50;;;;;;;26.33;3.97;;;8.50;99.90;;;;;;5013790;28;20029;-93
2023/03/26 02:59:15;;;;;;;42.35;7.32;;;8.50;99.90;;;;;;5005838;28;20026;-93
2023/03/26 03:01:45;;;;;;;35.47;4.13;;;8.50;99.90;;;;;;4994875;28;20037;-94
2023/03/26 03:04:11;;;;;;;31.58;3.80;;;8.50;99.90;;;;;;5001554;28;20029;-94
2023/03/26 03:06:37;;;;;;;33.92;4.70;;;8.50;99.90;;;;;;4999489;28;20113;-93
2023/03/26 03:09:10;;;;;;;32.53;3.60;;;8.40;99.90;;;;;;5000193;28;20026;-93
2023/03/26 03:11:39;;;;;;;27.65;3.20;;;8.40;99.90;;;;;;5014752;28;20036;-94
2023/03/26 03:14:05;;;;;;;29.08;3.53;;;8.40;99.90;;;;;;5017266;28;20045;-93
2023/03/26 03:16:32;;;;;;;32.70;3.75;;;8.40;99.90;;;;;;5017901;28;20038;-93
2023/03/26 03:18:57;;;;;;;21.50;2.80;;;8.40;99.90;;;;;;5000683;28;20119;-95
2023/03/26 03:21:25;;;;;;;29.67;2.42;;;8.40;99.90;;;;;;5017325;28;20026;-93
2023/03/26 03:23:53;;;;;;;35.13;4.00;;;8.40;99.90;;;;;;4998018;28;20088;-94
2023/03/26 03:26:21;;;;;;;31.65;3.95;;;8.40;99.90;;;;;;5005925;28;20555;-94
2023/03/26 03:28:48;;;;;;;31.55;3.03;;;8.40;99.90;;;;;;5000155;28;20056;-94
2023/03/26 03:31:15;;;;;;;39.38;3.50;;;8.40;99.90;;;;;;5000670;28;20038;-94
2023/03/26 03:33:41;;;;;;;31.83;3.13;;;8.40;99.90;;;;;;5018192;28;20075;-94
2023/03/26 03:36:12;;;;;;;35.72;3.30;;;8.40;99.90;;;;;;5017806;28;20029;-95
2023/03/26 03:38:39;;;;;;;25.15;3.25;;;8.40;99.90;;;;;;5017294;28;20069;-94
2023/03/26 03:41:06;;;;;;;21.27;2.28;;;8.40;99.90;;;;;;5017225;28;20041;-93
2023/03/26 03:43:32;;;;;;;29.45;2.67;;;8.40;99.90;;;;;;5015671;28;20135;-93
2023/03/26 03:45:58;;;;;;;26.80;3.47;;;8.40;99.90;;;;;;5016583;28;20025;-93
2023/03/26 03:48:24;;;;;;;20.23;2.10;;;8.40;99.90;;;;;;5015048;28;20040;-92
2023/03/26 03:50:50;;;;;;;30.65;2.90;;;8.40;99.90;;;;;;5017032;28;20478;-93
2023/03/26 03:53:17;;;;;;;34.78;3.25;;;8.40;99.90;;;;;;5000522;28;20485;-93
2023/03/26 03:55:51;;;;;;;36.47;3.33;;;8.40;99.90;;;;;;4998413;28;20477;-93
2023/03/26 03:58:20;;;;;;;29.75;3.53;;;8.40;99.90;;;;;;4996764;28;20034;-93
2023/03/26 04:00:50;;;;;;;30.48;2.47;;;8.40;99.90;;;;;;4999556;28;20061;-93
2023/03/26 04:03:17;;;;;;;29.48;2.75;;;8.30;99.90;;;;;;5016601;28;20037;-94
2023/03/26 04:05:48;;;;;;;26.85;3.15;;;8.30;99.90;;;;;;5000102;28;20091;-94
2023/03/26 04:08:15;;;;;;;26.65;3.40;;;8.30;99.90;;;;;;5014285;28;20026;-94
2023/03/26 04:10:42;;;;;;;39.75;4.38;;;8.30;99.90;;;;;;5001066;28;20056;-93
2023/03/26 04:13:09;;;;;;;28.35;2.80;;;8.30;99.90;;;;;;4999947;28;20038;-93
2023/03/26 04:15:35;;;;;;;37.22;4.07;;;8.30;99.90;;;;;;5016516;28;20113;-92
2023/03/26 04:18:00;;;;;;;26.00;2.75;;;8.30;99.90;;;;;;5002000;28;20524;-94
2023/03/26 04:20:26;;;;;;;27.80;3.25;;;8.30;99.90;;;;;;5005966;28;20022;-92
2023/03/26 04:22:51;;;;;;;30.35;3.05;;;8.30;99.90;;;;;;5000322;28;20034;-93
2023/03/26 04:25:17;;;;;;;24.80;2.83;;;8.30;99.90;;;;;;5014561;28;20081;-92
2023/03/26 04:27:43;;;;;;;22.50;2.80;;;8.20;99.90;;;;;;5015791;28;20044;-92
2023/03/26 04:30:16;;;;;;;30.63;2.60;;;8.20;99.90;;;;;;5001863;28;20030;-92
2023/03/26 04:32:41;;;;;;;33.17;3.10;;;8.20;99.90;;;;;;4998611;28;20038;-94
2023/03/26 04:35:10;;;;;;;26.02;2.95;;;8.10;99.90;;;;;;5014214;28;20168;-92
2023/03/26 04:37:39;;;;;;;27.38;2.95;;;8.20;99.90;;;;;;5001507;28;20044;-92
2023/03/26 04:40:12;;;;;;;31.13;3.30;;;8.10;99.90;;;;;;5016205;28;20018;-94
2023/03/26 04:42:44;;;;;;;26.70;3.20;;;8.20;99.90;;;;;;5017073;28;20038;-94
2023/03/26 04:45:11;;;;;;;;;;;8.10;99.90;;;;;;5007740;28;20056;-92
2023/03/26 04:47:38;;;;;;;33.00;3.40;;;8.10;99.90;;;;;;5009927;28;19913;-92
2023/03/26 04:50:05;;;;;;;27.67;3.55;;;8.10;99.90;;;;;;4993892;28;20438;-93
2023/03/26 04:52:31;;;;;;;28.70;3.25;;;8.10;99.90;;;;;;5010620;28;20065;-94
2023/03/26 04:54:57;;;;;;;26.50;2.85;;;8.10;99.90;;;;;;4997115;28;20030;-92
2023/03/26 04:57:37;;;;;;;35.22;3.15;;;8.20;99.90;;;;;;4996268;28;20041;-93
2023/03/26 05:00:13;;;;;;;28.27;4.18;;;8.10;99.90;;;;;;5007856;28;20030;-91
2023/03/26 05:02:41;;;;;;;24.95;3.28;;;8.10;99.90;;;;;;4999407;28;20038;-93
2023/03/26 05:05:07;;;;;;;27.52;2.97;;;8.10;99.90;;;;;;5003365;28;20120;-93
2023/03/26 05:07:32;;;;;;;22.23;2.50;;;8.10;99.90;;;;;;5018944;28;20043;-92
2023/03/26 05:10:00;;;;;;;25.95;3.30;;;8.10;99.90;;;;;;5001413;28;20034;-93
2023/03/26 05:12:26;;;;;;;21.80;3.55;;;8.10;99.90;;;;;;4984268;28;20042;-93
2023/03/26 05:14:51;;;;;;;25.17;2.65;;;8.00;99.90;;;;;;4992715;28;20033;-93
2023/03/26 05:17:17;;;;;;;24.23;3.72;;;8.10;99.90;;;;;;5001789;28;20141;-94
2023/03/26 05:19:45;;;;;;;19.83;2.28;;;8.10;99.90;;;;;;4992130;28;20502;-94
2023/03/26 05:22:11;;;;;;;22.25;2.65;;;8.10;99.90;;;;;;4998905;28;20026;-93
2023/03/26 05:24:36;;;;;;;29.23;2.65;;;8.10;99.90;;;;;;5002322;28;20082;-93
2023/03/26 05:27:02;;;;;;;30.05;2.65;;;8.10;99.90;;;;;;5002852;28;20125;-93
2023/03/26 05:29:27;;;;;;;26.08;2.88;;;8.10;99.90;;;;;;5002695;28;20030;-93
2023/03/26 05:31:53;;;;;;;26.23;3.05;;;8.10;99.90;;;;;;5017033;28;20042;-93
2023/03/26 05:34:19;;;;;;;25.35;4.13;;;8.00;99.90;;;;;;4993600;28;20026;-94
2023/03/26 05:36:45;;;;;;;24.58;3.00;;;8.00;99.90;;;;;;5002279;28;20117;-94
2023/03/26 05:39:13;;;;;;;25.27;3.10;;;8.10;99.90;;;;;;4997510;28;20049;-93
2023/03/26 05:41:38;;;;;;;26.60;2.80;;;8.10;99.90;;;;;;5003426;28;20443;-92
2023/03/26 05:44:04;;;;;;;28.00;2.35;;;8.00;99.90;;;;;;4997172;28;20082;-93
2023/03/26 05:46:30;;;;;;;22.98;2.00;;;8.10;99.90;;;;;;5010643;28;20026;-94
2023/03/26 05:48:55;;;;;;;23.42;2.33;;;8.10;99.90;;;;;;5005698;28;20041;-92
2023/03/26 05:51:22;;;;;;;22.60;2.28;;;8.10;99.90;;;;;;4996508;28;20037;-93
2023/03/26 05:53:48;;;;;;;21.88;2.22;;;8.10;99.90;;;;;;5018207;28;20057;-94
2023/03/26 05:56:13;;;;;;;25.30;2.47;;;8.10;99.90;;;;;;4992220;28;20502;-93
2023/03/26 05:58:40;;;;;;;23.10;3.13;;;8.10;99.90;;;;;;4997478;28;20113;-93
2023/03/26 06:01:08;;;;;;;24.27;3.35;;;8.10;99.90;;;;;;4994607;28;20054;-94
2023/03/26 06:03:36;;;;;;;28.38;2.88;;;8.10;99.90;;;;;;5015816;28;21582;-94
2023/03/26 06:06:05;;;;;;;16.90;2.33;;;8.10;99.90;;;;;;5011012;28;20022;-93
2023/03/26 06:08:31;;;;;;;36.75;2.60;;;8.10;99.90;;;;;;4999097;28;20096;-93
2023/03/26 06:11:02;;;;;;;32.72;3.55;;;8.10;99.90;;;;;;4993961;28;20039;-94
2023/03/26 06:13:28;;;;;;;26.52;2.70;;;8.10;99.90;;;;;;5014453;28;20038;-93
2023/03/26 06:15:53;;;;;;;25.05;2.85;;;8.10;99.90;;;;;;5018890;28;20060;-93
2023/03/26 06:18:19;;;;;;;26.13;2.75;;;8.10;99.90;;;;;;4999864;28;20029;-93
2023/03/26 06:20:45;;;;;;;26.13;2.40;;;8.10;99.90;;;;;;5017095;28;20023;-94
2023/03/26 06:23:11;;;;;;;19.58;2.10;;;8.10;99.90;;;;;;5002576;28;20025;-93
2023/03/26 06:25:36;;;;;;;26.85;3.30;;;8.20;99.90;;;;;;5002362;28;20037;-93
2023/03/26 06:28:03;;;;;;;18.00;2.63;;;8.20;99.90;;;;;;5002171;28;20029;-92
2023/03/26 06:30:29;;;;;;;25.02;2.25;;;8.20;99.90;;;;;;5018714;28;20105;-93
2023/03/26 06:32:55;;;;;;;23.15;2.88;;;8.20;99.90;;;;;;5014491;28;20077;-93
2023/03/26 06:35:20;;;;;;;27.27;2.55;;;8.30;99.90;;;;;;4998641;28;20025;-92
2023/03/26 06:37:46;;;;;;;30.42;3.10;;;8.30;99.90;;;;;;5013187;28;20120;-92
2023/03/26 06:40:12;;;;;;;27.38;3.00;;;8.30;99.90;;;;;;5012081;28;20417;-93
2023/03/26 06:42:37;;;;;;;28.33;2.50;;;8.30;99.90;;;;;;4998790;28;20079;-94
2023/03/26 06:45:04;;;;;;;25.35;3.00;;;8.40;99.90;;;;;;4991107;28;20108;-93
2023/03/26 06:47:29;;;;;;;19.40;2.85;;;8.40;99.90;;;;;;4995531;28;20064;-92
2023/03/26 06:49:55;;;;;;;34.60;3.53;;;8.40;99.90;;;;;;5001053;28;20426;-94
2023/03/26 06:52:20;;;;;;;25.05;2.70;;;8.40;99.90;;;;;;5016452;28;20045;-88
2023/03/26 06:54:46;;;;;;;20.02;2.20;;;8.40;99.90;;;;;;4999422;28;20029;-92
2023/03/26 06:57:11;;;;;;;28.77;3.10;;;8.40;99.90;;;;;;5011923;28;20033;-92
2023/03/26 06:59:37;;;;;;;27.70;3.75;;;8.50;99.90;;;;;;5034317;28;20022;-93
2023/03/26 07:02:03;;;;;;;24.27;2.83;;;8.50;99.90;;;;;;5001856;28;20038;-94
2023/03/26 07:04:29;;;;;;;25.65;2.80;;;8.50;99.90;;;;;;4998974;28;20026;-95
2023/03/26 07:06:54;;;;;;;24.45;2.92;;;8.50;99.90;;;;;;4998064;28;20030;-93
2023/03/26 07:09:20;;;;;;;30.13;3.50;;;8.50;99.90;;;;;;5015879;28;20482;-94
2023/03/26 07:11:46;;;;;;;22.65;2.58;;;8.50;99.90;;;;;;5019341;28;20506;-95
2023/03/26 07:14:11;;;;;;;21.17;3.08;;;8.50;99.90;;;;;;5000926;28;20026;-94
2023/03/26 07:16:37;;;;;;;26.73;3.67;;;8.50;99.90;;;;;;5017941;28;20026;-94
2023/03/26 07:19:02;;;;;;;27.00;4.07;;;8.50;99.90;;;;;;5001705;28;20032;-94
2023/03/26 07:21:28;;;;;;;24.83;2.95;;;8.60;99.90;;;;;;5000522;28;20549;-93
2023/03/26 07:23:54;;;;;;;26.80;3.58;;;8.60;99.90;;;;;;5003764;28;20025;-93
2023/03/26 07:26:41;;;;;;;21.95;2.72;;;8.60;99.90;;;;;;5006726;28;20121;-93
2023/03/26 07:29:33;;;;;;;27.77;3.50;;;8.60;99.90;;;;;;5010763;28;20036;-93
2023/03/26 07:32:08;;;;;;;28.77;4.07;;;8.60;99.90;;;;;;4997933;28;20066;-93
2023/03/26 07:35:10;;;;;;;22.95;3.72;;;8.60;99.90;;;;;;4984868;28;20164;-93
2023/03/26 07:38:00;;;;;;;27.08;3.30;;;8.60;99.90;;;;;;4959755;28;20051;-91
2023/03/26 07:40:50;;;;;;;18.88;2.75;;;8.70;99.90;;;;;;4996418;28;20026;-92
2023/03/26 07:43:15;;;;;;;23.95;3.25;;;8.70;99.90;;;;;;5014079;28;20081;-91
2023/03/26 07:45:43;;;;;;;22.42;3.63;;;8.70;99.90;;;;;;5006343;28;20080;-91
2023/03/26 07:48:20;;;;;;;26.35;3.17;;;8.70;99.90;;;;;;4992849;28;20026;-91
2023/03/26 07:50:47;;;;;;;26.45;4.57;;;8.70;99.90;;;;;;4995691;28;20030;-92
2023/03/26 07:53:13;;;;;;;23.52;4.93;;;8.70;99.90;;;;;;4997814;28;20061;-90
2023/03/26 07:56:13;;;;;;;26.98;4.75;;;8.60;99.90;;;;;;4995530;28;20505;-91
2023/03/26 07:59:07;;;;;;;20.00;3.85;;;8.60;99.90;;;;;;5014977;28;20109;-90
2023/03/26 08:02:14;;;;;;;23.48;4.53;;;8.60;99.90;;;;;;4995583;28;20092;-89
2023/03/26 08:05:17;;;;;;;19.63;3.20;;;8.60;99.90;;;;;;5016683;28;20018;-91
2023/03/26 08:08:07;;;;;;;29.42;5.00;;;8.60;99.90;;;;;;5007316;28;20030;-93
2023/03/26 08:10:41;;;;;;;23.27;3.58;;;8.60;99.90;;;;;;5016117;28;20033;-90
2023/03/26 08:13:41;;;;;;;22.45;4.07;;;8.70;99.90;;;;;;5017130;28;20030;-91
2023/03/26 08:16:10;;;;;;;19.27;2.80;;;8.80;99.90;;;;;;5001057;28;20018;-92
2023/03/26 08:18:58;;;;;;;23.27;3.42;;;8.70;99.90;;;;;;5001386;28;20030;-93
2023/03/26 08:21:39;;;;;;;23.33;3.72;;;8.80;99.90;;;;;;5018192;28;20033;-93
2023/03/26 08:24:18;;;;;;;19.00;3.85;;;8.90;99.90;;;;;;5013137;28;20031;-93
2023/03/26 08:27:26;;;;;;;20.17;3.58;;;8.90;99.90;;;;;;5002862;28;20014;-92
2023/03/26 08:30:03;;;;;;;23.60;3.50;;;8.90;99.90;;;;;;5011483;28;20028;-92
2023/03/26 08:32:29;;;;;;;18.67;3.90;;;8.90;99.90;;;;;;5000091;28;20046;-92
2023/03/26 08:34:56;;;;;;;22.38;3.05;;;8.90;99.90;;;;;;5013460;28;20021;-93
2023/03/26 08:37:22;;;;;;;25.63;3.83;;;9.00;99.90;;;;;;4987106;28;20037;-93
2023/03/26 08:39:48;;;;;;;14.95;3.20;;;9.00;99.90;;;;;;4997112;28;20022;-92
2023/03/26 08:42:56;;;;;;;23.90;3.35;;;9.00;99.90;;;;;;5010743;28;20584;-93
2023/03/26 08:45:38;;;;;;;10.85;2.53;;;9.00;99.90;;;;;;4996554;28;20119;-91
2023/03/26 08:48:09;;;;;;;22.83;3.00;;;9.00;99.90;;;;;;5007762;28;20022;-91
2023/03/26 08:51:00;;;;;;;16.85;2.90;;;9.00;99.90;;;;;;5001040;28;20022;-90
2023/03/26 08:53:57;;;;;;;14.52;2.70;;;9.00;99.90;;;;;;5000666;28;20513;-91
2023/03/26 08:56:38;;;;;;;17.00;3.03;;;9.00;99.90;;;;;;4991003;28;20120;-91
2023/03/26 08:59:12;;;;;;;17.42;3.15;;;9.00;99.90;;;;;;4999617;28;20462;-92
2023/03/26 09:01:57;;;;;;;15.88;3.50;;;9.00;99.90;;;;;;4999556;28;20112;-92
2023/03/26 09:04:38;;;;;;;13.32;2.50;;;9.00;99.90;;;;;;4999300;28;20026;-92
2023/03/26 09:07:43;;;;;;;12.00;2.55;;;9.00;99.90;;;;;;4999495;28;20022;-91
2023/03/26 09:10:45;;;;;;;17.45;2.40;;;9.00;99.90;;;;;;4984204;28;20018;-92
2023/03/26 09:13:19;;;;;;;15.45;2.30;;;9.10;99.90;;;;;;4997578;28;20092;-92
2023/03/26 09:16:05;;;;;;;20.48;3.53;;;9.10;99.90;;;;;;5014420;28;20452;-92
2023/03/26 09:19:03;;;;;;;12.52;2.42;;;9.20;99.90;;;;;;5014970;28;20358;-94
2023/03/26 09:21:51;;;;;;;15.68;2.83;;;9.40;99.90;;;;;;5012493;28;20762;-93
2023/03/26 09:24:35;;;;;;;12.60;3.10;;;9.50;99.90;;;;;;5010297;28;20026;-94
2023/03/26 09:27:37;;;;;;;17.95;2.60;;;9.60;99.90;;;;;;5014417;28;20026;-95
2023/03/26 09:30:20;;;;;;;13.20;2.80;;;9.70;99.90;;;;;;5016479;28;20094;-94
2023/03/26 09:32:48;;;;;;;14.88;2.65;;;9.80;99.90;;;;;;5003902;28;20602;-93
2023/03/26 09:35:37;;;;;;;11.82;3.10;;;9.90;99.90;;;;;;5023625;28;20132;-93
2023/03/26 09:38:25;;;;;;;13.52;2.83;;;9.90;99.90;;;;;;5002833;28;20034;-93
2023/03/26 09:41:01;;;;;;;13.70;2.63;;;9.90;99.90;;;;;;4998654;28;20050;-93
2023/03/26 09:43:42;;;;;;;14.35;2.83;;;10.00;99.90;;;;;;5010264;28;20102;-92
2023/03/26 09:46:25;;;;;;;14.77;2.72;;;10.10;99.90;;;;;;5012094;28;20022;-94
2023/03/26 09:49:16;;;;;;;12.07;2.25;;;10.20;99.90;;;;;;5012653;28;20037;-93
2023/03/26 09:51:54;;;;;;;8.70;1.90;;;10.30;99.90;;;;;;5002733;28;20030;-92
2023/03/26 09:54:31;;;;;;;9.57;2.60;;;10.30;99.90;;;;;;5002820;28;20548;-92
2023/03/26 09:57:15;;;;;;;12.48;2.38;;;10.40;99.90;;;;;;5011768;28;20065;-94
2023/03/26 09:59:46;;;;;;;14.85;3.35;;;10.40;99.90;;;;;;5015737;28;20080;-93
2023/03/26 10:02:52;;;;;;;10.38;2.22;;;10.50;99.90;;;;;;5009914;28;20026;-94
2023/03/26 10:05:44;;;;;;;10.00;2.55;;;10.60;99.90;;;;;;5020238;28;20157;-94
2023/03/26 10:08:40;;;;;;;10.63;1.97;;;10.50;99.90;;;;;;5019066;28;20028;-92
2023/03/26 10:11:24;;;;;;;5.15;1.02;;;10.60;99.90;;;;;;5014950;28;20037;-94
2023/03/26 10:14:12;;;;;;;7.80;1.00;;;10.60;99.90;;;;;;5019329;28;20473;-93
2023/03/26 10:16:43;;;;;;;5.25;0.90;;;10.70;99.90;;;;;;4993159;28;20027;-94
2023/03/26 10:19:20;;;;;;;7.35;1.77;;;10.70;99.90;;;;;;5010236;28;20022;-92
2023/03/26 10:22:08;;;;;;;9.80;0.77;;;10.80;99.90;;;;;;5003388;28;20031;-93
2023/03/26 10:24:46;;;;;;;5.50;0.68;;;11.00;99.90;;;;;;5013674;28;20099;-95
2023/03/26 10:27:41;;;;;;;4.38;0.73;;;11.10;99.90;;;;;;5016660;28;20455;-94
2023/03/26 10:30:23;;;;;;;3.10;0.75;;;11.20;99.90;;;;;;5024306;28;20469;-93
2023/03/26 10:33:11;;;;;;;3.92;0.60;;;11.30;99.90;;;;;;5020835;28;20049;-93
2023/03/26 10:36:01;;;;;;;5.32;0.50;;;11.30;99.90;;;;;;5018609;28;20480;-93
2023/03/26 10:38:57;;;;;;;3.83;0.50;;;11.30;99.90;;;;;;5005916;28;20022;-93
2023/03/26 10:41:47;;;;;;;3.38;0.55;;;11.20;99.90;;;;;;5016336;28;20471;-92
2023/03/26 10:44:32;;;;;;;4.70;0.63;;;11.10;99.90;;;;;;5023636;28;20050;-92
2023/03/26 10:47:16;;;;;;;7.47;0.50;;;11.10;99.90;;;;;;5012920;28;20037;-93
2023/03/26 10:49:53;;;;;;;5.45;0.52;;;11.20;99.90;;;;;;5017081;28;20137;-94
2023/03/26 10:52:23;;;;;;;5.13;0.60;;;11.20;99.90;;;;;;4996882;28;20816;-93
2023/03/26 10:54:51;;;;;;;6.22;0.50;;;11.20;99.90;;;;;;4996541;28;20113;-94
2023/03/26 10:57:33;;;;;;;4.45;0.50;;;11.10;99.90;;;;;;5002857;28;20440;-93
2023/03/26 11:00:24;;;;;;;4.57;0.70;;;11.10;99.90;;;;;;5018556;28;20037;-94
2023/03/26 11:03:26;;;;;;;5.55;0.70;;;11.10;99.90;;;;;;5001163;28;20214;-93
2023/03/26 11:06:02;;;;;;;4.80;0.80;;;11.10;99.90;;;;;;5020679;28;20037;-91
2023/03/26 11:09:02;;;;;;;4.60;0.60;;;11.10;99.90;;;;;;4997963;28;20033;-92
2023/03/26 11:11:40;;;;;;;7.25;0.90;;;11.00;99.90;;;;;;5016892;28;20092;-94
2023/03/26 11:14:28;;;;;;;6.90;1.08;;;11.00;99.90;;;;;;5001846;28;20046;-90
2023/03/26 11:17:01;;;;;;;5.82;1.05;;;10.90;99.90;;;;;;4982904;28;20029;-91
2023/03/26 11:19:51;;;;;;;10.20;1.23;;;10.90;99.90;;;;;;5009110;28;20029;-93
2023/03/26 11:22:16;;;;;;;7.05;1.83;;;11.00;99.90;;;;;;5001274;28;20049;-95
2023/03/26 11:24:51;;;;;;;9.50;1.30;;;11.10;99.90;;;;;;5019141;28;20018;-94
2023/03/26 11:27:34;;;;;;;6.63;1.40;;;11.30;99.90;;;;;;5017038;28;20397;-91
2023/03/26 11:30:27;;;;;;;9.10;1.65;;;11.20;99.90;;;;;;5007422;28;20026;-93
2023/03/26 11:32:57;;;;;;;5.32;1.20;;;11.20;99.90;;;;;;5014507;28;20033;-94
2023/03/26 11:35:31;;;;;;;4.93;1.30;;;11.10;99.90;;;;;;5000802;28;20030;-93
2023/03/26 11:38:02;;;;;;;6.15;1.20;;;11.20;99.90;;;;;;5003275;28;20045;-92
2023/03/26 11:40:40;;;;;;;7.00;1.30;;;11.30;99.90;;;;;;5017493;28;20049;-91
2023/03/26 11:43:10;;;;;;;5.05;0.77;;;11.50;99.90;;;;;;5018194;28;20101;-94
2023/03/26 11:45:41;;;;;;;6.28;1.23;;;11.40;99.90;;;;;;5017229;28;20052;-94
2023/03/26 11:48:17;;;;;;;6.10;1.20;;;11.50;99.90;;;;;;5011469;28;20026;-92
2023/03/26 11:50:50;;;;;;;4.05;0.95;;;11.50;99.90;;;;;;5011436;28;20022;-91
2023/03/26 11:53:19;;;;;;;6.53;1.17;;;11.60;99.90;;;;;;5016812;28;20041;-90
2023/03/26 11:55:58;;;;;;;6.40;0.93;;;11.60;99.90;;;;;;4992579;28;20094;-90
2023/03/26 11:58:36;;;;;;;5.20;0.80;;;11.60;99.90;;;;;;4981845;28;20036;-92
2023/03/26 12:01:14;;;;;;;6.38;0.90;;;11.60;99.90;;;;;;5009670;28;20053;-92
2023/03/26 12:03:40;;;;;;;5.70;0.93;;;11.80;99.90;;;;;;5012561;28;20090;-91
2023/03/26 12:06:24;;;;;;;3.80;0.80;;;12.00;99.90;;;;;;5012614;28;20038;-92
2023/03/26 12:08:50;;;;;;;4.63;0.70;;;12.10;99.90;;;;;;5016318;28;20033;-92
2023/03/26 12:11:18;;;;;;;7.05;1.25;;;11.80;99.90;;;;;;5011068;28;20030;-92
2023/03/26 12:13:51;;;;;;;6.88;1.20;;;11.50;99.90;;;;;;5016436;28;20429;-91
2023/03/26 12:16:19;;;;;;;4.30;1.13;;;11.10;99.90;;;;;;4999988;28;20026;-92
2023/03/26 12:18:55;;;;;;;6.35;2.20;;;10.70;99.90;;;;;;5015985;28;20025;-90
2023/03/26 12:21:21;;;;;;;9.45;2.20;;;10.40;99.90;;;;;;5025746;28;20033;-92
2023/03/26 12:24:03;;;;;;;9.27;3.10;;;10.10;99.90;;;;;;4996202;28;20033;-92
2023/03/26 12:26:32;;;;;;;13.25;4.38;;;9.90;99.90;;;;;;4998878;28;20030;-92
2023/03/26 12:29:06;;;;;;;11.10;5.72;;;9.70;99.90;;;;;;5005280;28;20034;-92
2023/03/26 12:31:41;;;;;;;14.02;6.75;;;9.60;99.90;;;;;;4992819;28;20063;-91
2023/03/26 12:34:21;;;;;;;13.30;5.93;;;9.50;99.90;;;;;;4997056;28;20434;-92
2023/03/26 12:36:55;;;;;;;13.50;6.68;;;9.40;99.90;;;;;;5028448;28;20112;-91
2023/03/26 12:39:47;;;;;;;17.70;7.05;;;9.40;99.90;;;;;;5018198;28;20437;-91
2023/03/26 12:42:31;;;;;;;15.55;7.53;;;9.40;99.90;;;;;;5012362;28;20038;-90
2023/03/26 12:44:57;;;;;;;16.08;7.00;;;9.40;99.90;;;;;;5015970;28;20064;-91
2023/03/26 12:47:28;;;;;;;19.92;8.38;;;9.40;99.90;;;;;;5003028;28;20030;-90
2023/03/26 12:49:54;;;;;;;16.38;8.18;;;9.50;99.90;;;;;;5007453;28;20037;-90
2023/03/26 12:52:52;;;;;;;20.35;7.80;;;9.50;99.90;;;;;;5013996;28;20112;-91
2023/03/26 12:55:31;;;;;;;15.05;7.03;;;9.50;99.90;;;;;;5004203;28;20027;-89
2023/03/26 12:58:36;;;;;;;20.95;7.68;;;9.50;99.90;;;;;;4985678;28;20486;-90
2023/03/26 13:01:24;;;;;;;18.83;6.53;;;9.50;99.90;;;;;;5011250;28;20489;-92
2023/03/26 13:04:02;;;;;;;18.55;6.18;;;9.50;99.90;;;;;;4997883;28;20227;-91
2023/03/26 13:06:43;;;;;;;20.63;5.63;;;9.50;99.90;;;;;;4996543;28;20072;-92
2023/03/26 13:09:09;;;;;;;17.33;5.05;;;9.50;99.90;;;;;;4995963;28;20435;-91
2023/03/26 13:11:44;;;;;;;18.80;5.55;;;9.40;99.90;;;;;;5009063;28;20038;-92
2023/03/26 13:14:35;;;;;;;20.30;5.00;;;9.30;99.90;;;;;;4993478;28;20490;-92
2023/03/26 13:17:18;;;;;;;14.93;5.60;;;9.30;99.90;;;;;;5005505;28;20018;-91
2023/03/26 13:19:43;;;;;;;17.60;5.07;;;9.40;99.90;;;;;;5014701;28;20137;-90
2023/03/26 13:22:49;;;;;;;14.25;4.25;;;9.40;99.90;;;;;;5021725;28;20076;-90